Terminal Aerodrome Forecast
Issued by NWS Boston, MA

Current Version | Previous Version | Text Only | Print | Product List | Glossary On
Versions: 1 2 3 4 5 6 7 8 9 10 11 12 13 14 15 16 17 18 19 20 21
000 FTUS41 KBOX 280538 TAFBDL TAF KBDL 280538Z 2806/2912 VRB03KT P6SM SCT020 BKN130 FM280900 00000KT 3SM BR BKN150 FM281300 VRB03KT P6SM SCT250 FM281800 34005KT P6SM BKN070 FM291000 02009KT P6SM BKN060=

USA.gov is the U.S. government's official web portal to all federal, state and local government web resources and services.